Time;durP1;ratioP1;P1;durP2;ratioP2;P2;SDS_P1;SDS_P2;PMS_P1;PMS_P2;Temp;Humidity;BMP_temperature;BMP_pressure;BME280_temperature;BME280_humidity;BME280_pressure;Samples;Min_cycle;Max_cycle;Signal;HPM_P1;HPM_P2
2024/01/02 00:00:17;;;;;;;8.17;3.00;;;;;;;-12.44;52.42;99953.66;5058782;28;20094;-65
2024/01/02 00:02:43;;;;;;;10.43;3.40;;;;;;;-12.22;52.16;99993.97;5057691;28;20420;-64
2024/01/02 00:05:09;;;;;;;8.63;3.50;;;;;;;-12.75;51.82;99939.41;5043760;28;20111;-64
2024/01/02 00:07:35;;;;;;;8.37;3.20;;;;;;;-12.84;50.94;99980.34;5058229;28;20036;-63
2024/01/02 00:10:02;;;;;;;9.87;2.93;;;;;;;-12.97;51.62;99968.38;5060087;28;20095;-64
2024/01/02 00:12:33;;;;;;;8.67;3.37;;;;;;;-12.94;51.58;99971.13;5059619;28;20044;-63
2024/01/02 00:15:00;;;;;;;7.60;3.23;;;;;;;-12.97;51.17;99971.72;5061055;28;20136;-64
2024/01/02 00:17:30;;;;;;;7.70;3.45;;;;;;;-12.98;51.18;99985.00;5048835;28;20059;-63
2024/01/02 00:19:56;;;;;;;9.97;4.17;;;;;;;-12.69;53.41;100004.22;5060163;28;20570;-64
2024/01/02 00:22:22;;;;;;;6.23;2.80;;;;;;;-12.93;51.12;99973.78;5058318;28;20135;-65
2024/01/02 00:24:50;;;;;;;8.90;3.27;;;;;;;-12.81;50.86;100008.19;5059259;28;20139;-64
2024/01/02 00:27:16;;;;;;;6.70;3.40;;;;;;;-12.90;51.25;100010.75;5046825;28;20068;-64
2024/01/02 00:29:42;;;;;;;10.10;3.53;;;;;;;-13.21;51.24;99963.84;5062617;28;20079;-63
2024/01/02 00:32:08;;;;;;;7.70;3.60;;;;;;;-13.01;51.26;100002.28;5046372;28;20090;-63
2024/01/02 00:34:34;;;;;;;7.43;3.47;;;;;;;-12.98;51.41;100014.22;5042068;28;20044;-64
2024/01/02 00:37:00;;;;;;;9.10;2.93;;;;;;;-13.74;51.27;99903.28;5043435;28;20041;-63
2024/01/02 00:39:26;;;;;;;11.17;3.77;;;;;;;-13.97;50.98;99896.25;5058801;28;20041;-64
2024/01/02 00:41:52;;;;;;;7.23;3.10;;;;;;;-13.47;51.62;99996.63;5046740;28;20048;-64
2024/01/02 00:44:18;;;;;;;6.03;2.80;;;;;;;-13.40;51.32;100013.06;5070019;28;20058;-64
2024/01/02 00:46:44;;;;;;;10.00;3.97;;;;;;;-13.53;51.56;100013.59;5056630;28;20531;-63
2024/01/02 00:49:10;;;;;;;6.00;3.17;;;;;;;-13.84;51.40;99990.81;5057526;28;20036;-64
2024/01/02 00:51:36;;;;;;;5.57;2.83;;;;;;;-13.84;51.75;99983.31;5042379;28;20033;-65
2024/01/02 00:54:02;;;;;;;13.20;3.30;;;;;;;-13.69;51.81;100002.22;5030350;28;20047;-64
2024/01/02 00:56:28;;;;;;;7.90;3.80;;;;;;;-13.61;51.75;100014.56;5062962;28;20038;-64
2024/01/02 00:58:55;;;;;;;10.70;4.07;;;;;;;-13.53;51.70;100014.50;5030998;28;20051;-64
2024/01/02 01:01:20;;;;;;;8.23;3.63;;;;;;;-13.81;51.33;99951.94;5047102;28;20604;-63
2024/01/02 01:03:47;;;;;;;6.23;2.63;;;;;;;-13.65;51.36;99996.75;5024988;28;20507;-63
2024/01/02 01:06:13;;;;;;;8.37;3.43;;;;;;;-13.64;51.73;100010.13;5059223;28;20041;-65
2024/01/02 01:08:40;;;;;;;6.80;3.10;;;;;;;-13.76;51.20;99997.38;5056292;28;20040;-65
2024/01/02 01:11:06;;;;;;;8.20;3.40;;;;;;;-14.00;50.61;100011.94;5059017;28;20566;-64
2024/01/02 01:13:35;;;;;;;8.33;3.50;;;;;;;-14.16;51.90;99987.16;5058324;28;20552;-64
2024/01/02 01:16:01;;;;;;;5.93;2.50;;;;;;;-14.36;52.12;99966.94;5057034;28;20064;-64
2024/01/02 01:18:26;;;;;;;7.57;2.67;;;;;;;-14.24;52.47;99963.94;5060558;28;20129;-64
2024/01/02 01:20:52;;;;;;;9.57;3.03;;;;;;;-14.15;51.81;99983.91;5062508;28;20044;-65
2024/01/02 01:23:18;;;;;;;8.77;3.30;;;;;;;-13.94;51.91;100024.16;5054904;28;20033;-65
2024/01/02 01:25:44;;;;;;;9.33;3.00;;;;;;;-14.71;51.87;99938.81;5057591;28;20036;-65
2024/01/02 01:28:11;;;;;;;7.03;2.90;;;;;;;-14.27;52.20;99997.78;5059025;28;20047;-63
2024/01/02 01:30:37;;;;;;;5.97;2.90;;;;;;;-14.36;51.96;99977.81;5045566;28;20024;-64
2024/01/02 01:33:05;;;;;;;7.93;3.27;;;;;;;-14.21;52.30;99992.44;5029218;28;20051;-64
2024/01/02 01:35:31;;;;;;;6.10;2.80;;;;;;;-14.08;51.30;100023.75;5062181;28;20103;-64
2024/01/02 01:37:58;;;;;;;5.47;2.47;;;;;;;-14.41;51.77;99963.97;5045084;28;20032;-64
2024/01/02 01:40:24;;;;;;;5.50;2.80;;;;;;;-14.41;51.79;99994.88;5057478;28;20511;-64
2024/01/02 01:42:49;;;;;;;4.70;2.27;;;;;;;-14.31;52.31;100009.13;5046389;28;20064;-65
2024/01/02 01:45:15;;;;;;;6.30;2.93;;;;;;;-14.49;52.67;99974.91;5040830;28;20044;-64
2024/01/02 01:47:42;;;;;;;5.43;2.73;;;;;;;-14.25;52.21;100017.19;5045485;28;21012;-64
2024/01/02 01:50:09;;;;;;;6.10;2.40;;;;;;;-14.52;52.45;99969.63;5056692;28;20070;-65
2024/01/02 01:52:35;;;;;;;8.03;2.90;;;;;;;-14.55;52.23;99967.69;5056578;28;20040;-63
2024/01/02 01:55:02;;;;;;;8.93;3.70;;;;;;;-14.30;51.74;100018.38;5040868;28;20064;-64
2024/01/02 01:57:29;;;;;;;8.33;2.73;;;;;;;-14.79;52.07;99946.34;5041054;28;20040;-64
2024/01/02 01:59:55;;;;;;;7.90;2.70;;;;;;;-14.41;52.42;100006.50;5058221;28;20033;-64
2024/01/02 02:02:22;;;;;;;5.07;2.30;;;;;;;-14.44;52.51;100002.09;5042140;28;20037;-63
2024/01/02 02:04:49;;;;;;;6.93;2.43;;;;;;;-14.41;51.95;99994.88;5044804;28;20545;-64
2024/01/02 02:07:15;;;;;;;12.00;3.23;;;;;;;-14.48;51.37;99991.69;5045169;28;20063;-64
2024/01/02 02:09:41;;;;;;;10.83;2.27;;;;;;;-14.62;51.21;99993.75;5045336;28;20123;-64
2024/01/02 02:12:08;;;;;;;4.30;2.27;;;;;;;-14.57;52.14;100005.06;5044005;28;20147;-63
2024/01/02 02:14:34;;;;;;;5.47;2.53;;;;;;;-14.56;52.84;100008.47;5056190;28;20566;-64
2024/01/02 02:17:01;;;;;;;6.77;2.30;;;;;;;-14.63;52.18;100001.13;5057654;28;20048;-63
2024/01/02 02:19:27;;;;;;;7.47;2.77;;;;;;;-14.66;51.99;99981.69;5056116;28;20036;-64
2024/01/02 02:22:05;;;;;;;6.93;2.60;;;;;;;-14.63;52.09;99982.00;5030633;28;20102;-63
2024/01/02 02:24:32;;;;;;;7.47;2.73;;;;;;;-14.48;51.99;99995.03;5039866;28;20071;-64
2024/01/02 02:26:59;;;;;;;5.80;2.40;;;;;;;-14.47;51.68;99999.31;5045492;28;20036;-63
2024/01/02 02:29:24;;;;;;;7.87;2.77;;;;;;;-14.66;52.28;99960.84;5056521;28;20041;-64
2024/01/02 02:31:50;;;;;;;6.93;2.50;;;;;;;-14.61;52.14;99970.53;5058129;28;20074;-64
2024/01/02 02:34:16;;;;;;;5.37;2.60;;;;;;;-14.52;51.75;99990.50;5057043;28;20041;-64
2024/01/02 02:36:43;;;;;;;5.30;2.40;;;;;;;-14.44;51.89;99991.19;5040158;28;20052;-66
2024/01/02 02:39:09;;;;;;;7.77;2.43;;;;;;;-14.62;51.75;99955.41;5055547;28;20050;-64
2024/01/02 02:41:36;;;;;;;5.93;2.20;;;;;;;-14.41;52.13;99989.00;5053562;28;20045;-64
2024/01/02 02:44:02;;;;;;;6.13;2.70;;;;;;;-14.49;52.49;99979.91;5043083;28;20077;-65
2024/01/02 02:46:30;;;;;;;4.10;2.47;;;;;;;-14.61;52.07;99960.53;5028559;28;20040;-63
2024/01/02 02:48:56;;;;;;;6.60;2.37;;;;;;;-14.46;51.72;99982.69;5056178;28;20072;-64
2024/01/02 02:51:22;;;;;;;4.43;2.20;;;;;;;-14.36;52.22;99985.31;5066631;28;20045;-63
2024/01/02 02:53:48;;;;;;;5.07;2.27;;;;;;;-14.65;51.82;99940.09;5045224;28;20083;-65
2024/01/02 02:56:15;;;;;;;4.87;2.10;;;;;;;-14.51;51.86;99983.88;5056487;28;20060;-64
2024/01/02 02:58:42;;;;;;;6.53;2.53;;;;;;;-14.93;51.19;99925.97;5052812;28;20095;-64
2024/01/02 03:01:08;;;;;;;4.97;2.27;;;;;;;-14.59;51.94;99976.53;5054536;28;20048;-63
2024/01/02 03:03:36;;;;;;;4.63;2.17;;;;;;;-14.70;52.47;99940.59;5054912;28;20040;-63
2024/01/02 03:06:02;;;;;;;7.20;2.70;;;;;;;-14.82;51.57;99943.56;5038091;28;20056;-64
2024/01/02 03:08:28;;;;;;;4.70;2.13;;;;;;;-14.73;52.01;99930.31;5054996;28;20131;-64
2024/01/02 03:10:59;;;;;;;6.53;2.33;;;;;;;-14.64;51.94;99925.25;5054550;28;20132;-64
2024/01/02 03:13:25;;;;;;;3.67;1.97;;;;;;;-14.26;52.12;99967.91;5036269;28;20126;-63
2024/01/02 03:15:51;;;;;;;5.53;2.17;;;;;;;-14.43;51.96;99940.47;5056024;28;20651;-61
2024/01/02 03:18:17;;;;;;;3.17;2.03;;;;;;;-14.30;51.58;99974.97;5053307;28;20963;-63
2024/01/02 03:20:43;;;;;;;5.87;2.03;;;;;;;-14.33;52.21;99965.59;5053714;28;20033;-64
2024/01/02 03:23:09;;;;;;;6.53;2.40;;;;;;;-14.35;52.07;99954.56;5055505;28;20563;-62
2024/01/02 03:25:35;;;;;;;4.53;2.17;;;;;;;-14.32;51.46;99952.34;5056115;28;20043;-63
2024/01/02 03:28:01;;;;;;;4.67;2.37;;;;;;;-14.54;51.79;99904.47;5046895;28;20055;-62
2024/01/02 03:30:27;;;;;;;6.87;2.40;;;;;;;-14.20;52.19;99960.09;5064348;28;20044;-63
2024/01/02 03:32:53;;;;;;;8.53;2.43;;;;;;;-14.44;51.83;99909.59;5048300;28;20213;-62
2024/01/02 03:35:19;;;;;;;6.40;2.07;;;;;;;-14.51;51.82;99906.41;5043308;28;20569;-62
2024/01/02 03:37:46;;;;;;;5.17;2.10;;;;;;;-14.28;51.99;99941.88;5055475;28;20127;-61
2024/01/02 03:40:12;;;;;;;4.80;2.00;;;;;;;-14.37;51.92;99916.03;5058497;28;20045;-63
2024/01/02 03:42:38;;;;;;;5.23;1.93;;;;;;;-14.59;50.92;99929.06;5057969;28;20048;-63
2024/01/02 03:45:07;;;;;;;8.30;2.30;;;;;;;-14.59;51.59;99941.56;5043188;28;20525;-63
2024/01/02 03:47:33;;;;;;;8.07;2.30;;;;;;;-14.43;52.35;99946.34;5056596;28;20112;-62
2024/01/02 03:49:59;;;;;;;5.43;2.10;;;;;;;-14.42;52.39;99942.22;5030922;28;20041;-62
2024/01/02 03:52:26;;;;;;;5.43;2.40;;;;;;;-14.69;51.74;99911.50;5044448;28;20036;-62
2024/01/02 03:54:52;;;;;;;4.97;2.00;;;;;;;-14.34;52.16;99953.81;5057960;28;20056;-62
2024/01/02 03:57:20;;;;;;;2.87;1.67;;;;;;;-14.55;51.91;99907.72;5058349;28;20044;-64
2024/01/02 03:59:46;;;;;;;7.63;2.07;;;;;;;-14.52;51.95;99934.63;5056597;28;20049;-64
2024/01/02 04:02:12;;;;;;;2.23;1.17;;;;;;;-14.38;51.14;99964.28;5059785;28;20040;-63
2024/01/02 04:04:40;;;;;;;4.63;1.67;;;;;;;-14.52;51.86;99955.50;5042241;28;20060;-64
2024/01/02 04:07:09;;;;;;;7.30;2.40;;;;;;;-14.35;51.92;99969.56;5062680;28;20070;-64
2024/01/02 04:09:34;;;;;;;3.07;1.67;;;;;;;-14.30;51.62;99958.38;5046239;28;20554;-63
2024/01/02 04:12:00;;;;;;;4.60;2.17;;;;;;;-14.26;52.21;99974.53;5057894;28;20044;-63
2024/01/02 04:14:29;;;;;;;5.73;2.03;;;;;;;-14.54;51.69;99921.97;5063101;28;20045;-63
2024/01/02 04:16:57;;;;;;;5.33;2.03;;;;;;;-14.35;52.02;99966.19;5056836;28;20032;-63
2024/01/02 04:19:23;;;;;;;4.07;1.87;;;;;;;-14.57;51.84;99917.59;5054511;28;20052;-63
2024/01/02 04:21:48;;;;;;;7.00;2.23;;;;;;;-14.40;51.48;99939.16;5056716;28;20109;-64
2024/01/02 04:24:15;;;;;;;4.87;1.80;;;;;;;-14.50;52.11;99928.16;5056985;28;20139;-64
2024/01/02 04:26:43;;;;;;;4.17;1.50;;;;;;;-14.49;51.67;99944.91;5047213;28;20063;-63
2024/01/02 04:29:09;;;;;;;4.07;1.67;;;;;;;-14.46;51.65;99930.19;5058733;28;20072;-64
2024/01/02 04:31:37;;;;;;;5.37;2.03;;;;;;;-14.31;51.77;99959.09;5059809;28;20037;-64
2024/01/02 04:34:03;;;;;;;4.10;1.73;;;;;;;-14.29;51.69;99957.63;5057633;28;20422;-64
2024/01/02 04:36:29;;;;;;;4.93;2.00;;;;;;;-14.34;51.81;99941.31;5059370;28;20064;-65
2024/01/02 04:38:55;;;;;;;4.53;2.10;;;;;;;-14.16;51.67;99986.25;5057054;28;20064;-65
2024/01/02 04:41:21;;;;;;;4.00;1.53;;;;;;;-14.62;50.53;99940.41;5055590;28;20850;-65
2024/01/02 04:43:47;;;;;;;6.63;2.20;;;;;;;-14.91;51.39;99912.00;5059478;28;20045;-64
2024/01/02 04:46:13;;;;;;;4.77;1.97;;;;;;;-14.91;51.06;99939.47;5059106;28;20037;-65
2024/01/02 04:48:39;;;;;;;4.73;1.87;;;;;;;-14.86;52.54;99975.75;5040376;28;20045;-66
2024/01/02 04:51:05;;;;;;;4.50;1.57;;;;;;;-15.16;51.83;99966.22;5055799;28;20099;-64
2024/01/02 04:53:31;;;;;;;4.87;1.77;;;;;;;-15.01;52.27;99991.78;5056653;28;20561;-65
2024/01/02 04:55:57;;;;;;;2.60;1.30;;;;;;;-15.16;51.05;99966.22;5057280;28;20491;-66
2024/01/02 04:58:23;;;;;;;6.73;1.90;;;;;;;-15.24;51.76;99978.00;5039726;28;20044;-64
2024/01/02 05:00:49;;;;;;;11.60;1.70;;;;;;;-15.04;52.58;99981.50;5058139;28;20048;-65
2024/01/02 05:03:15;;;;;;;3.43;1.60;;;;;;;-15.27;52.34;99917.78;5041825;28;20058;-64
2024/01/02 05:05:41;;;;;;;3.80;1.20;;;;;;;-14.93;52.12;99978.41;5044897;28;20072;-64
2024/01/02 05:08:07;;;;;;;4.00;2.00;;;;;;;-14.90;51.98;99961.22;5053888;28;20064;-65
2024/01/02 05:10:33;;;;;;;4.53;1.80;;;;;;;-14.96;51.41;99945.66;5057327;28;20113;-63
2024/01/02 05:12:59;;;;;;;5.17;1.83;;;;;;;-15.34;51.30;99940.41;5056982;28;20128;-64
2024/01/02 05:15:25;;;;;;;4.10;2.27;;;;;;;-15.34;51.75;99955.38;5045401;28;20048;-64
2024/01/02 05:17:51;;;;;;;3.73;1.70;;;;;;;-15.20;52.18;99961.69;5056531;28;20072;-64
2024/01/02 05:20:17;;;;;;;4.00;2.30;;;;;;;-15.61;52.07;99863.03;5056915;28;20131;-64
2024/01/02 05:22:43;;;;;;;5.00;1.83;;;;;;;-15.27;51.88;99914.41;5040759;28;20032;-65
2024/01/02 05:25:09;;;;;;;4.67;1.73;;;;;;;-15.16;51.97;99934.66;5056393;28;20074;-63
2024/01/02 05:27:35;;;;;;;5.43;1.73;;;;;;;-15.62;51.62;99858.75;5039064;28;20059;-64
2024/01/02 05:30:02;;;;;;;4.70;1.80;;;;;;;-15.00;52.37;99964.44;5045278;28;20109;-64
2024/01/02 05:32:30;;;;;;;4.97;1.80;;;;;;;-15.09;51.97;99928.63;5056150;28;20048;-65
2024/01/02 05:34:58;;;;;;;7.30;2.10;;;;;;;-14.94;52.78;99944.19;5045316;28;20049;-63
2024/01/02 05:37:27;;;;;;;5.40;2.33;;;;;;;-15.26;52.43;99888.69;5056490;28;21588;-63
2024/01/02 05:39:55;;;;;;;4.63;2.17;;;;;;;-15.48;52.22;99872.56;5058461;28;20048;-64
2024/01/02 05:42:24;;;;;;;2.40;1.43;;;;;;;-15.24;51.56;99923.06;5057931;28;20059;-63
2024/01/02 05:44:53;;;;;;;7.63;2.50;;;;;;;-15.19;51.52;99956.84;5056663;28;20422;-63
2024/01/02 05:47:19;;;;;;;6.00;1.97;;;;;;;-15.42;52.08;99948.78;5062521;28;20056;-65
2024/01/02 05:49:45;;;;;;;3.97;1.70;;;;;;;-15.60;51.36;99946.28;5055951;28;20036;-64
2024/01/02 05:52:11;;;;;;;4.60;1.87;;;;;;;-15.60;51.64;99946.28;5054406;28;20090;-64
2024/01/02 05:54:40;;;;;;;4.10;1.90;;;;;;;-15.60;52.49;99946.28;5072731;28;20041;-64
2024/01/02 05:57:06;;;;;;;3.50;2.17;;;;;;;-15.77;52.26;99924.66;5056802;28;20095;-64
2024/01/02 05:59:34;;;;;;;6.03;1.93;;;;;;;-15.73;51.66;99948.28;5057098;28;20037;-64
2024/01/02 06:01:59;;;;;;;3.47;1.20;;;;;;;-16.03;51.43;99893.13;5043041;28;20037;-64
2024/01/02 06:04:25;;;;;;;7.57;1.80;;;;;;;-16.05;52.36;99892.09;5040098;28;20040;-64
2024/01/02 06:06:54;;;;;;;6.17;2.20;;;;;;;-15.99;52.52;99904.25;5055777;28;20040;-63
2024/01/02 06:09:23;;;;;;;7.47;2.23;;;;;;;-16.40;52.36;99840.53;5055812;28;20154;-63
2024/01/02 06:11:49;;;;;;;4.57;2.13;;;;;;;-16.15;52.36;99880.34;5045586;28;20098;-64
2024/01/02 06:14:18;;;;;;;3.07;1.53;;;;;;;-15.82;52.19;99918.34;5056859;28;20047;-65
2024/01/02 06:16:44;;;;;;;3.60;1.43;;;;;;;-15.95;51.26;99907.22;5039980;28;20044;-63
2024/01/02 06:19:11;;;;;;;4.60;2.23;;;;;;;-16.13;52.03;99853.94;5056867;28;20051;-64
2024/01/02 06:21:37;;;;;;;5.30;1.77;;;;;;;-15.92;52.10;99880.09;5055780;28;20098;-64
2024/01/02 06:24:03;;;;;;;7.70;1.73;;;;;;;-15.69;51.87;99922.91;5056161;28;20305;-64
2024/01/02 06:26:29;;;;;;;6.03;2.13;;;;;;;-15.66;52.32;99934.06;5056123;28;20045;-64
2024/01/02 06:28:58;;;;;;;4.33;1.50;;;;;;;-15.57;52.24;99931.59;5056935;28;20041;-65
2024/01/02 06:31:24;;;;;;;5.87;1.70;;;;;;;-15.65;51.63;99902.53;5056990;28;20519;-64
2024/01/02 06:33:50;;;;;;;3.43;1.33;;;;;;;-15.58;51.98;99899.88;5057440;28;20143;-64
2024/01/02 06:36:17;;;;;;;7.23;3.10;;;;;;;-15.67;51.52;99903.97;5070875;28;20041;-63
2024/01/02 06:38:46;;;;;;;4.43;2.17;;;;;;;-15.74;52.15;99877.56;5070289;28;20045;-64
2024/01/02 06:41:12;;;;;;;4.40;1.50;;;;;;;-15.49;51.56;99895.75;5056817;28;20076;-64
2024/01/02 06:43:41;;;;;;;5.17;1.90;;;;;;;-15.33;51.15;99899.69;5069775;28;20040;-62
2024/01/02 06:46:07;;;;;;;3.67;1.67;;;;;;;-15.12;51.74;99928.34;5041479;28;20092;-63
2024/01/02 06:48:34;;;;;;;7.60;1.70;;;;;;;-15.05;51.25;99927.28;5054655;28;20122;-63
2024/01/02 06:51:00;;;;;;;2.87;1.40;;;;;;;-15.17;51.71;99917.03;5058114;28;20387;-64
2024/01/02 06:53:26;;;;;;;3.53;1.40;;;;;;;-15.07;50.75;99921.25;5057538;28;20044;-63
2024/01/02 06:55:52;;;;;;;4.93;1.57;;;;;;;-14.99;51.28;99921.25;5057270;28;20070;-63
2024/01/02 06:58:20;;;;;;;4.90;1.70;;;;;;;-15.11;51.64;99897.63;5044226;28;20068;-64
2024/01/02 07:00:46;;;;;;;7.73;2.40;;;;;;;-15.02;51.42;99888.50;5056196;28;20060;-64
2024/01/02 07:03:12;;;;;;;7.00;2.43;;;;;;;-14.61;51.65;99920.53;5057203;28;20048;-63
2024/01/02 07:05:40;;;;;;;4.50;1.80;;;;;;;-14.80;51.06;99914.59;5064431;28;20474;-64
2024/01/02 07:08:06;;;;;;;4.37;2.03;;;;;;;-14.91;51.07;99909.50;5065912;28;20044;-62
2024/01/02 07:10:32;;;;;;;4.37;1.97;;;;;;;-14.81;51.74;99931.22;5059756;28;20047;-63
2024/01/02 07:12:58;;;;;;;6.63;1.60;;;;;;;-15.07;51.13;99883.81;5046367;28;20040;-64
2024/01/02 07:15:25;;;;;;;5.77;2.03;;;;;;;-14.76;51.37;99909.16;5051854;28;20363;-63
2024/01/02 07:17:51;;;;;;;3.97;2.20;;;;;;;-14.82;50.60;99894.47;5035316;28;20044;-63
2024/01/02 07:20:17;;;;;;;10.30;1.87;;;;;;;-14.61;51.32;99903.03;5063204;28;20041;-63
2024/01/02 07:22:43;;;;;;;4.67;2.20;;;;;;;-14.71;50.90;99908.84;5065816;28;20127;-62
2024/01/02 07:25:10;;;;;;;6.43;1.97;;;;;;;-14.86;51.26;99877.44;5063527;28;20087;-63
2024/01/02 07:27:36;;;;;;;4.60;2.13;;;;;;;-14.69;51.50;99894.00;5063764;28;20135;-62
2024/01/02 07:30:02;;;;;;;6.03;1.53;;;;;;;-14.48;50.76;99897.53;5048032;28;20566;-61
2024/01/02 07:32:31;;;;;;;6.93;2.03;;;;;;;-14.34;50.75;99891.31;5062569;28;20567;-63
2024/01/02 07:34:56;;;;;;;6.20;2.50;;;;;;;-14.14;50.89;99879.72;5065158;28;20128;-63
2024/01/02 07:37:23;;;;;;;4.13;2.60;;;;;;;-13.83;50.68;99897.50;5062833;28;20036;-62
2024/01/02 07:39:50;;;;;;;3.93;1.70;;;;;;;-13.60;50.51;99902.03;5064128;28;20083;-65
2024/01/02 07:42:17;;;;;;;5.00;2.17;;;;;;;-13.69;50.21;99857.03;5074281;28;20041;-63
2024/01/02 07:44:43;;;;;;;6.77;1.97;;;;;;;-13.32;49.71;99914.44;5057565;28;20041;-64
2024/01/02 07:47:09;;;;;;;8.43;2.53;;;;;;;-13.13;49.90;99911.91;5065575;28;20140;-63
2024/01/02 07:49:35;;;;;;;4.83;2.37;;;;;;;-12.90;49.90;99902.97;5063451;28;20071;-64
2024/01/02 07:52:04;;;;;;;6.70;2.10;;;;;;;-12.58;49.94;99908.25;5062174;28;20093;-64
2024/01/02 07:54:30;;;;;;;6.13;2.10;;;;;;;-12.17;49.46;99899.03;5065467;28;20467;-64
2024/01/02 07:56:59;;;;;;;5.20;2.30;;;;;;;-11.84;49.80;99880.81;5061297;28;20074;-63
2024/01/02 07:59:25;;;;;;;5.20;2.30;;;;;;;-11.53;49.95;99875.72;5059098;28;20071;-63
2024/01/02 08:01:52;;;;;;;7.87;3.20;;;;;;;-11.43;48.85;99894.06;5050859;28;20060;-64
2024/01/02 08:04:18;;;;;;;5.70;2.60;;;;;;;-11.52;48.73;99897.56;5062511;28;20062;-64
2024/01/02 08:06:44;;;;;;;7.37;3.47;;;;;;;-11.61;48.51;99861.69;5063869;28;20044;-63
2024/01/02 08:09:14;;;;;;;6.93;2.40;;;;;;;-11.54;48.33;99878.97;5066834;28;20040;-62
2024/01/02 08:11:40;;;;;;;7.83;2.80;;;;;;;-11.40;48.74;99892.66;5045776;28;20110;-63
2024/01/02 08:14:06;;;;;;;6.27;2.83;;;;;;;-11.54;48.21;99860.53;5063064;28;20387;-63
2024/01/02 08:16:32;;;;;;;5.93;2.83;;;;;;;-11.42;48.12;99891.66;5048351;28;20049;-63
2024/01/02 08:19:00;;;;;;;6.50;2.67;;;;;;;-11.30;48.14;99890.88;5056636;28;20053;-63
2024/01/02 08:21:26;;;;;;;7.57;3.03;;;;;;;-11.31;48.12;99879.06;5059055;28;20037;-64
2024/01/02 08:23:54;;;;;;;9.13;2.67;;;;;;;-11.18;47.69;99886.81;5051269;28;20041;-63
2024/01/02 08:26:21;;;;;;;7.33;2.90;;;;;;;-11.29;47.23;99855.81;5058973;28;20429;-65
2024/01/02 08:28:49;;;;;;;7.00;2.90;;;;;;;-11.30;47.09;99853.19;5058220;28;20037;-64
2024/01/02 08:31:15;;;;;;;6.10;2.70;;;;;;;-11.17;47.69;99862.56;5062243;28;20037;-63
2024/01/02 08:33:41;;;;;;;6.30;3.23;;;;;;;-11.22;46.71;99855.56;5042578;28;20051;-63
2024/01/02 08:36:10;;;;;;;6.67;3.50;;;;;;;-11.33;46.89;99868.88;5058207;28;20414;-66
2024/01/02 16:08:52;;;;;;;3.93;1.10;;;;;;;-17.77;49.01;99815.38;5062290;28;20049;-65
2024/01/02 16:11:20;;;;;;;6.63;1.60;;;;;;;-17.74;49.10;99820.63;5078887;28;20438;-63
2024/01/02 16:13:56;;;;;;;3.60;1.13;;;;;;;-18.03;48.67;99781.28;5067785;28;20044;-64
2024/01/02 16:16:37;;;;;;;2.37;0.90;;;;;;;-17.83;48.71;99814.72;5065150;28;20048;-63
2024/01/02 16:19:36;;;;;;;1.75;0.70;;;;;;;-18.04;49.54;99762.97;5054416;28;20483;-63
2024/01/02 16:22:27;;;;;;;2.43;1.30;;;;;;;-17.78;49.04;99809.50;5003715;28;20503;-63
2024/01/02 16:25:23;;;;;;;5.40;1.40;;;;;;;-17.73;49.63;99813.34;5077189;28;20097;-64
2024/01/02 16:28:09;;;;;;;1.40;0.73;;;;;;;-17.96;48.80;99765.34;5047163;28;20032;-64
2024/01/02 16:30:38;;;;;;;4.33;0.80;;;;;;;-17.71;49.12;99808.50;5045756;28;20063;-63
2024/01/02 16:33:27;;;;;;;2.87;1.07;;;;;;;-17.76;49.36;99809.66;5084521;28;20147;-64
2024/01/02 16:36:30;;;;;;;2.17;1.33;;;;;;;-18.00;49.18;99766.69;5056156;28;20066;-63
2024/01/02 16:39:16;;;;;;;2.87;1.00;;;;;;;-18.00;49.02;99790.63;5030344;28;20043;-64
2024/01/02 16:41:45;;;;;;;5.80;1.17;;;;;;;-18.29;48.90;99752.13;5038923;28;20033;-66
2024/01/02 16:44:14;;;;;;;1.37;1.00;;;;;;;-17.93;49.17;99808.78;5068520;28;20040;-63
2024/01/02 16:46:41;;;;;;;1.63;1.23;;;;;;;-18.24;49.70;99767.50;5049988;28;20067;-63
2024/01/02 16:49:10;;;;;;;2.20;1.27;;;;;;;-17.93;49.29;99806.31;5064062;28;20356;-66
2024/01/02 16:51:37;;;;;;;3.43;1.07;;;;;;;-18.06;49.14;99805.81;5060736;28;20097;-63
2024/01/02 16:54:04;;;;;;;4.43;0.90;;;;;;;-17.99;48.98;99812.28;5082776;28;20162;-64
2024/01/02 16:56:37;;;;;;;5.30;1.03;;;;;;;-18.33;49.08;99763.34;5039573;28;20075;-65
2024/01/02 16:59:05;;;;;;;2.13;0.80;;;;;;;-18.11;49.64;99814.38;5059389;28;20076;-65
2024/01/02 17:01:37;;;;;;;2.47;1.20;;;;;;;-18.21;49.81;99785.22;5084870;28;20033;-64
2024/01/02 17:04:04;;;;;;;2.90;1.37;;;;;;;-18.23;49.27;99775.13;5037658;28;20090;-64
2024/01/02 17:06:31;;;;;;;3.57;1.43;;;;;;;-18.07;49.63;99828.91;5093012;28;20044;-64
2024/01/02 17:09:00;;;;;;;5.97;1.63;;;;;;;-18.12;49.55;99811.03;5059622;28;20044;-63
2024/01/02 17:11:28;;;;;;;3.03;1.23;;;;;;;-18.23;49.23;99789.13;5060918;28;20036;-64
2024/01/02 17:13:56;;;;;;;3.27;1.40;;;;;;;-18.26;49.40;99776.41;5050817;28;20459;-64
2024/01/02 17:16:22;;;;;;;2.37;1.47;;;;;;;-18.24;49.63;99777.44;5053230;28;20065;-63
2024/01/02 17:18:50;;;;;;;4.83;1.43;;;;;;;-18.29;49.25;99781.94;5044376;28;20040;-63
2024/01/02 17:21:20;;;;;;;4.37;1.10;;;;;;;-18.20;50.25;99792.81;5033282;28;20404;-62
2024/01/02 17:23:47;;;;;;;2.87;1.73;;;;;;;-18.10;49.90;99814.56;5046127;28;20071;-64
2024/01/02 17:26:20;;;;;;;2.77;1.57;;;;;;;-18.13;50.06;99806.78;5049382;28;20068;-63
2024/01/02 17:28:52;;;;;;;5.43;1.37;;;;;;;-18.13;49.92;99814.25;5046601;28;20415;-64
2024/01/02 17:31:19;;;;;;;5.45;1.35;;;;;;;-18.22;50.03;99798.34;5044694;28;20033;-63
2024/01/02 17:33:49;;;;;;;2.80;1.40;;;;;;;-18.23;49.43;99802.47;5062702;28;20055;-64
2024/01/02 17:36:27;;;;;;;1.30;0.77;;;;;;;-18.32;49.78;99796.53;5047059;28;20036;-64
2024/01/02 17:38:55;;;;;;;1.93;0.87;;;;;;;-18.44;49.12;99777.88;5048747;28;20056;-64
2024/01/02 17:41:22;;;;;;;5.70;1.53;;;;;;;-18.22;50.11;99801.75;5070566;28;20537;-65
2024/01/02 17:43:50;;;;;;;2.87;1.63;;;;;;;-18.67;49.86;99721.72;5052016;28;20166;-64
2024/01/02 17:46:16;;;;;;;3.27;1.10;;;;;;;-18.30;50.03;99800.03;5077454;28;20040;-64
2024/01/02 17:48:42;;;;;;;1.73;0.93;;;;;;;-18.26;49.54;99807.09;5038507;28;20074;-65
2024/01/02 17:51:14;;;;;;;1.30;0.83;;;;;;;-18.22;49.37;99815.75;5035948;28;20424;-62
2024/01/02 17:53:48;;;;;;;2.07;1.03;;;;;;;-18.32;49.16;99826.34;5032416;28;20102;-63
2024/01/02 17:56:16;;;;;;;3.10;1.57;;;;;;;-18.44;49.67;99793.63;5043936;28;20048;-64
2024/01/02 17:58:58;;;;;;;1.97;0.63;;;;;;;-18.28;49.56;99822.56;5052615;28;20042;-64
2024/01/02 18:01:25;;;;;;;2.63;0.90;;;;;;;-18.59;49.61;99785.44;5073056;28;20068;-64
2024/01/02 18:03:54;;;;;;;2.37;0.73;;;;;;;-18.29;49.63;99818.31;5071486;28;20510;-64
2024/01/02 18:06:28;;;;;;;3.50;1.37;;;;;;;-18.58;49.77;99773.94;5067827;28;20375;-63
2024/01/02 18:09:09;;;;;;;2.20;0.77;;;;;;;-18.21;49.73;99824.97;5070805;28;20117;-64
2024/01/02 18:11:46;;;;;;;3.75;1.17;;;;;;;-18.43;49.61;99805.34;5071749;28;20071;-64
2024/01/02 18:14:45;;;;;;;2.47;1.37;;;;;;;-18.67;49.70;99783.78;5037554;28;20717;-63
2024/01/02 18:17:45;;;;;;;3.43;0.80;;;;;;;-18.36;49.51;99836.66;5057876;28;20500;-64
2024/01/02 18:20:21;;;;;;;3.80;0.83;;;;;;;-18.37;48.80;99828.34;5054345;28;20486;-63
2024/01/02 18:22:50;;;;;;;0.70;0.70;;;;;;;-18.66;49.79;99781.44;5071169;28;20038;-63
2024/01/02 18:25:37;;;;;;;2.13;1.37;;;;;;;-18.38;50.14;99830.66;5041022;28;20060;-63
2024/01/02 18:28:41;;;;;;;4.27;1.00;;;;;;;-18.27;49.68;99821.84;5075079;28;20048;-64
2024/01/02 18:31:46;;;;;;;1.23;0.97;;;;;;;-18.40;49.35;99828.00;5036423;28;20048;-65
2024/01/02 18:34:29;;;;;;;2.97;0.80;;;;;;;-18.42;49.50;99828.59;5068745;28;20044;-64
2024/01/02 18:37:07;;;;;;;2.60;0.87;;;;;;;-18.64;49.77;99781.59;5087530;28;20430;-64
2024/01/02 18:39:43;;;;;;;1.13;1.00;;;;;;;-18.72;49.44;99774.97;5084787;28;20068;-63
2024/01/02 18:42:42;;;;;;;1.60;1.10;;;;;;;-18.42;49.96;99821.13;5069060;28;20047;-64
2024/01/02 18:45:25;;;;;;;1.77;0.97;;;;;;;-18.69;49.50;99767.84;5054398;28;20067;-64
2024/01/02 18:48:11;;;;;;;2.67;0.87;;;;;;;-18.70;49.72;99774.38;5057231;28;20127;-65
2024/01/02 18:50:48;;;;;;;4.13;1.13;;;;;;;-19.08;49.18;99713.31;5048872;28;20040;-64
2024/01/02 18:53:34;;;;;;;4.60;1.23;;;;;;;-19.22;49.87;99710.22;5070506;28;21592;-64
2024/01/02 18:56:01;;;;;;;2.23;0.63;;;;;;;-18.97;49.50;99750.91;5069592;28;20048;-65
2024/01/02 18:58:29;;;;;;;4.07;1.30;;;;;;;-18.77;48.95;99781.94;5073633;28;20509;-64
2024/01/02 19:01:11;;;;;;;4.90;2.17;;;;;;;-18.79;49.76;99780.88;5058604;28;20041;-64